createdAt,value
2018-06-05T00:02:23.769Z,22.67
2018-06-05T00:04:53.471Z,22.33
2018-06-05T00:07:23.217Z,23.23
2018-06-05T00:09:52.907Z,23.80
2018-06-05T00:12:22.576Z,22.00
2018-06-05T00:14:52.277Z,22.47
2018-06-05T00:17:22.080Z,22.53
2018-06-05T00:19:51.783Z,19.37
2018-06-05T00:22:21.507Z,19.13
2018-06-05T00:24:51.180Z,20.93
2018-06-05T00:27:20.830Z,21.10
2018-06-05T00:29:50.549Z,22.50
2018-06-05T00:32:20.219Z,22.73
2018-06-05T00:34:49.890Z,19.50
2018-06-05T00:37:19.615Z,20.50
2018-06-05T00:39:49.268Z,23.13
2018-06-05T00:42:18.952Z,21.07
2018-06-05T00:44:48.656Z,20.30
2018-06-05T00:47:18.322Z,20.60
2018-06-05T00:49:48.003Z,21.23
2018-06-05T00:52:17.702Z,20.77
2018-06-05T00:54:47.351Z,21.17
2018-06-05T00:57:17.017Z,20.67
2018-06-05T00:59:46.691Z,20.17
2018-06-05T01:02:16.632Z,21.57
2018-06-05T01:04:46.359Z,20.07
2018-06-05T01:07:16.101Z,19.20
2018-06-05T01:09:45.771Z,19.23
2018-06-05T01:12:15.488Z,21.13
2018-06-05T01:14:45.142Z,19.77
2018-06-05T01:17:14.811Z,20.93
2018-06-05T01:19:44.516Z,22.30
2018-06-05T01:22:14.233Z,21.57
2018-06-05T01:24:43.892Z,20.87
2018-06-05T01:27:13.871Z,21.53
2018-06-05T01:29:43.520Z,22.37
2018-06-05T01:32:13.224Z,21.70
2018-06-05T01:34:42.884Z,22.20
2018-06-05T01:37:12.543Z,21.67
2018-06-05T01:39:42.243Z,22.80
2018-06-05T01:42:11.900Z,22.90
2018-06-05T01:44:41.546Z,21.83
2018-06-05T01:47:11.235Z,22.93
2018-06-05T01:49:40.873Z,23.43
2018-06-05T01:52:10.732Z,22.87
2018-06-05T01:54:40.453Z,24.20
2018-06-05T01:57:10.104Z,24.47
2018-06-05T01:59:39.752Z,22.90
2018-06-05T02:02:09.447Z,22.37
2018-06-05T02:04:39.107Z,24.53
2018-06-05T02:07:08.883Z,23.27
2018-06-05T02:09:38.592Z,24.07
2018-06-05T02:12:08.206Z,24.73
2018-06-05T02:14:37.854Z,22.53
2018-06-05T02:17:07.591Z,21.20
2018-06-05T02:19:37.235Z,23.73
2018-06-05T02:22:07.523Z,23.50
2018-06-05T02:24:37.178Z,24.30
2018-06-05T02:27:06.951Z,24.30
2018-06-05T02:29:36.595Z,23.43
2018-06-05T02:32:06.320Z,24.77
2018-06-05T02:34:35.992Z,23.50
2018-06-05T02:37:05.680Z,23.23
2018-06-05T02:39:35.393Z,23.40
2018-06-05T02:42:05.080Z,24.87
2018-06-05T02:44:34.731Z,26.40
2018-06-05T02:47:04.457Z,25.10
2018-06-05T02:49:34.104Z,25.27
2018-06-05T02:52:03.791Z,24.57
2018-06-05T02:54:33.476Z,24.40
2018-06-05T02:57:03.140Z,26.10
2018-06-05T02:59:32.821Z,23.30
2018-06-05T03:02:02.535Z,24.47
2018-06-05T03:04:32.197Z,27.90
2018-06-05T03:07:01.908Z,24.60
2018-06-05T03:09:31.576Z,25.63
2018-06-05T03:12:01.311Z,26.27
2018-06-05T03:14:30.968Z,27.03
2018-06-05T03:17:00.633Z,24.30
2018-06-05T03:19:30.371Z,27.23
2018-06-05T03:21:59.984Z,26.93
2018-06-05T03:24:29.647Z,26.03
2018-06-05T03:26:59.320Z,26.07
2018-06-05T03:29:28.992Z,25.43
2018-06-05T03:31:58.685Z,28.13
2018-06-05T03:34:28.387Z,24.37
2018-06-05T03:36:58.069Z,25.20
2018-06-05T03:39:27.741Z,23.93
2018-06-05T03:41:57.504Z,25.13
2018-06-05T03:44:27.196Z,23.53
2018-06-05T03:46:56.886Z,23.73
2018-06-05T03:49:26.587Z,24.13
2018-06-05T03:51:56.224Z,25.47
2018-06-05T03:54:25.912Z,24.60
2018-06-05T03:56:55.578Z,22.80
2018-06-05T03:59:25.301Z,22.40
2018-06-05T04:01:54.963Z,23.00
2018-06-05T04:04:24.746Z,21.00
2018-06-05T04:06:54.408Z,22.27
2018-06-05T04:09:24.109Z,24.97
2018-06-05T04:11:53.766Z,21.17
2018-06-05T04:14:23.428Z,22.20
2018-06-05T04:16:53.300Z,21.87
2018-06-05T04:19:22.965Z,23.53
2018-06-05T04:21:52.615Z,22.00
2018-06-05T04:24:22.343Z,24.73
2018-06-05T04:26:51.976Z,22.73
2018-06-05T04:29:21.631Z,21.67
2018-06-05T04:31:51.328Z,22.73
2018-06-05T04:34:20.974Z,22.93
2018-06-05T04:36:50.659Z,22.23
2018-06-05T04:39:20.375Z,23.77
2018-06-05T04:41:50.092Z,22.47
2018-06-05T04:44:19.763Z,21.40
2018-06-05T04:46:49.649Z,19.93
2018-06-05T04:49:19.316Z,19.10
2018-06-05T04:51:48.979Z,20.27
2018-06-05T04:54:18.690Z,22.03
2018-06-05T04:56:48.337Z,20.60
2018-06-05T04:59:18.004Z,19.60
2018-06-05T05:01:47.715Z,19.20
2018-06-05T05:04:17.433Z,19.37
2018-06-05T05:06:47.150Z,18.37
2018-06-05T05:09:17.957Z,19.63
2018-06-05T05:11:47.636Z,21.10
2018-06-05T05:14:17.324Z,21.33
2018-06-05T05:16:47.132Z,20.80
2018-06-05T05:19:16.811Z,22.27
2018-06-05T05:21:46.463Z,19.43
2018-06-05T05:24:16.153Z,19.67
2018-06-05T05:26:45.845Z,21.40
2018-06-05T05:29:15.511Z,20.90
2018-06-05T05:31:45.247Z,20.97
2018-06-05T05:34:14.971Z,18.73
2018-06-05T05:36:45.137Z,21.10
2018-06-05T05:39:14.920Z,19.80
2018-06-05T05:41:44.710Z,20.97
2018-06-05T05:44:14.506Z,19.20
2018-06-05T05:46:44.333Z,20.97
2018-06-05T05:49:14.074Z,21.10
2018-06-05T05:51:44.017Z,19.60
2018-06-05T05:54:14.521Z,20.73
2018-06-05T05:56:44.212Z,19.60
2018-06-05T05:59:13.876Z,20.67
2018-06-05T06:01:43.598Z,20.53
2018-06-05T06:04:13.270Z,20.60
2018-06-05T06:06:42.930Z,20.03
2018-06-05T06:09:12.659Z,21.57
2018-06-05T06:11:42.640Z,18.47
2018-06-05T06:14:12.363Z,21.63
2018-06-05T06:16:42.049Z,21.63
2018-06-05T06:19:11.718Z,20.60
2018-06-05T06:21:41.412Z,21.60
2018-06-05T06:24:11.152Z,21.77
2018-06-05T06:26:40.801Z,21.30
2018-06-05T06:29:10.504Z,19.90
2018-06-05T06:31:40.161Z,21.00
2018-06-05T06:34:09.825Z,21.53
2018-06-05T06:36:39.532Z,20.37
2018-06-05T06:39:10.444Z,21.17
2018-06-05T06:41:40.148Z,20.30
2018-06-05T06:44:09.799Z,19.30
2018-06-05T06:46:39.461Z,18.20
2018-06-05T06:49:09.185Z,18.77
2018-06-05T06:51:38.841Z,17.43
2018-06-05T06:54:08.545Z,18.90
2018-06-05T06:56:38.290Z,16.90
2018-06-05T06:59:07.947Z,16.07
2018-06-05T07:01:37.587Z,18.63
2018-06-05T07:04:07.305Z,18.33
2018-06-05T07:06:37.073Z,18.37
2018-06-05T07:09:08.703Z,17.17
2018-06-05T07:11:38.390Z,19.67
2018-06-05T07:14:08.136Z,16.50
2018-06-05T07:16:37.795Z,17.13
2018-06-05T07:19:07.449Z,17.40
2018-06-05T07:21:37.141Z,17.40
2018-06-05T07:24:06.822Z,16.70
2018-06-05T07:26:36.480Z,16.63
2018-06-05T07:29:06.188Z,18.83
2018-06-05T07:31:35.841Z,16.50
2018-06-05T07:34:05.531Z,18.57
2018-06-05T07:36:35.252Z,17.13
2018-06-05T07:39:07.239Z,18.00
2018-06-05T07:41:36.971Z,18.33
2018-06-05T07:44:06.647Z,18.07
2018-06-05T07:46:36.372Z,21.33
2018-06-05T07:49:06.020Z,19.63
2018-06-05T07:51:35.684Z,20.23
2018-06-05T07:54:05.388Z,19.50
2018-06-05T07:56:35.052Z,20.37
2018-06-05T07:59:04.736Z,20.67
2018-06-05T08:01:34.479Z,21.47
2018-06-05T08:04:04.579Z,18.97
2018-06-05T08:06:34.283Z,19.67
2018-06-05T08:09:04.187Z,21.00
2018-06-05T08:11:33.855Z,18.43
2018-06-05T08:14:03.589Z,18.10
2018-06-05T08:16:33.245Z,18.03
2018-06-05T08:19:02.935Z,19.53
2018-06-05T08:21:32.634Z,17.93
2018-06-05T08:24:02.329Z,20.57
2018-06-05T08:26:45.958Z,19.83
2018-06-05T08:29:15.620Z,19.83
2018-06-05T08:31:45.324Z,20.87
2018-06-05T08:34:15.081Z,18.90
2018-06-05T08:36:44.851Z,21.10
2018-06-05T08:39:14.594Z,21.27
2018-06-05T08:41:44.264Z,19.30
2018-06-05T08:44:14.019Z,20.43
2018-06-05T08:46:44.245Z,19.73
2018-06-05T08:49:13.931Z,19.80
2018-06-05T08:51:43.612Z,20.80
2018-06-05T08:54:13.378Z,18.57
2018-06-05T08:56:43.048Z,21.37
2018-06-05T08:59:12.707Z,21.50
2018-06-05T09:01:42.412Z,20.77
2018-06-05T09:04:12.116Z,20.17
2018-06-05T09:06:41.795Z,21.40
2018-06-05T09:09:11.553Z,19.17
2018-06-05T09:11:41.213Z,18.60
2018-06-05T09:14:10.888Z,19.33
2018-06-05T09:16:40.637Z,19.53
2018-06-05T09:19:10.283Z,20.13
2018-06-05T09:21:39.964Z,21.13
2018-06-05T09:24:09.674Z,19.80
2018-06-05T09:26:39.343Z,22.23
2018-06-05T09:29:09.059Z,19.53
2018-06-05T09:31:38.740Z,22.60
2018-06-05T09:34:08.448Z,25.13
2018-06-05T09:36:38.214Z,23.30
2018-06-05T09:39:09.287Z,23.53
2018-06-05T09:41:38.987Z,22.17
2018-06-05T09:44:08.691Z,21.30
2018-06-05T09:46:38.431Z,23.50
2018-06-05T09:49:08.116Z,21.40
2018-06-05T09:51:37.767Z,22.63
2018-06-05T09:54:07.933Z,21.80
2018-06-05T09:56:37.608Z,20.63
2018-06-05T09:59:07.385Z,22.43
2018-06-05T10:01:37.035Z,22.13
2018-06-05T10:04:06.727Z,23.77
2018-06-05T10:06:36.826Z,23.17
2018-06-05T10:09:07.689Z,23.97
2018-06-05T10:11:37.451Z,21.07
2018-06-05T10:14:07.122Z,23.03
2018-06-05T10:16:36.781Z,24.17
2018-06-05T10:19:06.544Z,23.13
2018-06-05T10:21:36.232Z,24.60
2018-06-05T10:24:06.008Z,21.83
2018-06-05T10:26:35.701Z,22.23
2018-06-05T10:29:05.443Z,22.00
2018-06-05T10:31:35.329Z,20.43
2018-06-05T10:34:04.995Z,21.63
2018-06-05T10:36:34.695Z,24.93
2018-06-05T10:39:06.081Z,22.57
2018-06-05T10:41:35.750Z,23.50
2018-06-05T10:44:05.464Z,22.90
2018-06-05T10:46:35.179Z,24.10
2018-06-05T10:49:04.852Z,23.80
2018-06-05T10:51:34.554Z,21.30
2018-06-05T10:54:04.260Z,22.10
2018-06-05T10:56:34.077Z,23.70
2018-06-05T10:59:03.749Z,22.93
2018-06-05T11:01:33.471Z,22.77
2018-06-05T11:04:03.194Z,21.60
2018-06-05T11:06:32.856Z,22.67
2018-06-05T11:09:02.591Z,22.87
2018-06-05T11:11:32.267Z,23.50
2018-06-05T11:14:01.997Z,22.80
2018-06-05T11:16:31.700Z,22.40
2018-06-05T11:19:01.344Z,21.23
2018-06-05T11:21:31.005Z,21.07
2018-06-05T11:24:00.722Z,19.03
2018-06-05T11:26:30.389Z,19.00
2018-06-05T11:29:00.304Z,19.20
2018-06-05T11:31:29.965Z,19.83
2018-06-05T11:33:59.622Z,17.47
2018-06-05T11:36:29.344Z,20.03
2018-06-05T11:38:59.004Z,19.23
2018-06-05T11:41:28.651Z,17.17
2018-06-05T11:43:58.343Z,19.80
2018-06-05T11:46:27.988Z,19.13
2018-06-05T11:48:57.647Z,16.87
2018-06-05T11:51:27.470Z,18.10
2018-06-05T11:53:57.176Z,18.07
2018-06-05T11:56:27.164Z,16.30
2018-06-05T11:58:56.811Z,18.57
2018-06-05T12:01:26.476Z,18.05
2018-06-05T12:03:56.188Z,17.62
2018-06-05T12:06:25.833Z,17.92
2018-06-05T12:08:55.580Z,18.25
2018-06-05T12:11:25.247Z,18.75
2018-06-05T12:13:54.867Z,18.42
2018-06-05T12:16:24.543Z,19.12
2018-06-05T12:18:54.199Z,18.25
2018-06-05T12:21:23.875Z,16.62
2018-06-05T12:23:53.562Z,18.20
2018-06-05T12:26:23.224Z,19.82
2018-06-05T12:28:52.891Z,20.00
2018-06-05T12:31:22.615Z,18.27
2018-06-05T12:33:52.281Z,17.70
2018-06-05T12:36:21.944Z,17.00
2018-06-05T12:38:51.636Z,18.70
2018-06-05T12:41:21.263Z,16.52
2018-06-05T12:43:50.959Z,16.75
2018-06-05T12:46:20.640Z,18.48
2018-06-05T12:48:50.312Z,17.62
2018-06-05T12:51:19.963Z,17.75
2018-06-05T12:53:49.671Z,17.87
2018-06-05T12:56:19.311Z,19.27
2018-06-05T12:58:48.968Z,17.70
2018-06-05T13:01:18.883Z,18.57
2018-06-05T13:03:48.533Z,17.45
2018-06-05T13:06:18.288Z,16.05
2018-06-05T13:08:47.936Z,16.97
2018-06-05T13:11:17.592Z,16.82
2018-06-05T13:13:47.268Z,17.62
2018-06-05T13:16:16.946Z,15.55
2018-06-05T13:18:46.591Z,17.48
2018-06-05T13:21:16.308Z,15.88
2018-06-05T13:23:45.996Z,16.67
2018-06-05T13:26:15.660Z,17.85
2018-06-05T13:28:45.351Z,17.80
2018-06-05T13:31:15.119Z,15.55
2018-06-05T13:33:44.785Z,15.00
2018-06-05T13:36:14.515Z,14.70
2018-06-05T13:38:44.160Z,13.28
2018-06-05T13:41:13.815Z,15.35
2018-06-05T13:43:43.561Z,16.12
2018-06-05T13:46:13.217Z,15.15
2018-06-05T13:48:42.861Z,15.63
2018-06-05T13:51:12.551Z,16.45
2018-06-05T13:53:42.390Z,16.52
2018-06-05T13:56:12.127Z,15.95
2018-06-05T13:58:41.765Z,17.37
2018-06-05T14:01:11.413Z,17.42
2018-06-05T14:03:41.245Z,18.98
2018-06-05T14:06:10.991Z,16.25
2018-06-05T14:08:40.656Z,17.25
2018-06-05T14:11:10.352Z,14.55
2018-06-05T14:13:40.050Z,17.42
2018-06-05T14:16:09.755Z,16.17
2018-06-05T14:18:39.431Z,15.38
2018-06-05T14:21:09.091Z,16.35
2018-06-05T14:23:38.747Z,14.43
2018-06-05T14:26:08.444Z,16.12
2018-06-05T14:28:38.101Z,13.85
2018-06-05T14:31:07.768Z,14.58
2018-06-05T14:33:37.479Z,16.85
2018-06-05T14:36:07.371Z,15.55
2018-06-05T14:38:37.060Z,14.23
2018-06-05T14:41:06.720Z,15.00
2018-06-05T14:43:36.373Z,14.25
2018-06-05T14:46:06.082Z,16.62
2018-06-05T14:48:35.744Z,15.60
2018-06-05T14:51:05.438Z,14.35
2018-06-05T14:53:35.153Z,14.05
2018-06-05T14:56:04.824Z,15.95
2018-06-05T14:58:35.424Z,15.88
2018-06-05T15:01:05.131Z,16.65
2018-06-05T15:03:34.828Z,15.88
2018-06-05T15:06:04.545Z,15.90
2018-06-05T15:08:34.209Z,14.55
2018-06-05T15:11:03.886Z,14.83
2018-06-05T15:13:33.535Z,15.15
2018-06-05T15:16:03.268Z,16.97
2018-06-05T15:18:32.935Z,14.68
2018-06-05T15:21:02.608Z,15.13
2018-06-05T15:23:32.319Z,14.20
2018-06-05T15:26:01.997Z,15.65
2018-06-05T15:28:31.654Z,13.30
2018-06-05T15:31:01.373Z,13.90
2018-06-05T15:33:31.055Z,13.65
2018-06-05T15:36:00.728Z,14.73
2018-06-05T15:38:30.907Z,13.68
2018-06-05T15:41:00.574Z,14.00
2018-06-05T15:43:30.275Z,14.13
2018-06-05T15:45:59.970Z,12.82
2018-06-05T15:48:29.923Z,14.65
2018-06-05T15:50:59.616Z,15.30
2018-06-05T15:53:29.296Z,14.75
2018-06-05T15:55:58.971Z,13.43
2018-06-05T15:58:28.664Z,14.98
2018-06-05T16:00:58.315Z,13.05
2018-06-05T16:03:27.988Z,12.82
2018-06-05T16:05:57.815Z,13.80
2018-06-05T16:08:27.471Z,12.25
2018-06-05T16:10:57.187Z,13.43
2018-06-05T16:13:26.855Z,12.00
2018-06-05T16:15:56.516Z,12.50
2018-06-05T16:18:26.211Z,12.85
2018-06-05T16:20:55.868Z,12.47
2018-06-05T16:23:25.512Z,12.47
2018-06-05T16:25:55.224Z,12.18
2018-06-05T16:28:24.883Z,11.38
2018-06-05T16:30:54.545Z,13.20
2018-06-05T16:33:24.289Z,12.47
2018-06-05T16:35:53.951Z,11.53
2018-06-05T16:38:23.631Z,11.40
2018-06-05T16:40:53.458Z,11.85
2018-06-05T16:43:23.121Z,12.97
2018-06-05T16:45:52.776Z,11.25
2018-06-05T16:48:22.487Z,12.57
2018-06-05T16:50:52.148Z,10.75
2018-06-05T16:53:21.807Z,10.93
2018-06-05T16:55:51.520Z,10.20
2018-06-05T16:58:21.186Z,9.83
2018-06-05T17:00:50.860Z,10.57
2018-06-05T17:03:20.926Z,10.18
2018-06-05T17:05:50.587Z,10.60
2018-06-05T17:08:20.272Z,8.77
2018-06-05T17:10:50.265Z,8.83
2018-06-05T17:13:19.927Z,8.90
2018-06-05T17:15:49.808Z,10.00
2018-06-05T17:18:19.478Z,9.00
2018-06-05T17:20:49.192Z,8.97
2018-06-05T17:23:18.860Z,8.43
2018-06-05T17:25:48.534Z,8.57
2018-06-05T17:28:18.246Z,8.27
2018-06-05T17:30:48.072Z,8.40
2018-06-05T17:33:17.728Z,8.50
2018-06-05T17:35:47.440Z,7.87
2018-06-05T17:38:17.104Z,7.90
2018-06-05T17:40:46.743Z,8.00
2018-06-05T17:43:16.414Z,6.90
2018-06-05T17:45:46.103Z,8.20
2018-06-05T17:48:15.764Z,7.27
2018-06-05T17:50:45.720Z,7.53
2018-06-05T17:53:15.397Z,7.70
2018-06-05T17:55:45.088Z,7.97
2018-06-05T17:58:15.026Z,6.90
2018-06-05T18:00:44.707Z,7.27
2018-06-05T18:03:14.465Z,7.07
2018-06-05T18:05:44.201Z,7.00
2018-06-05T18:08:13.949Z,6.87
2018-06-05T18:10:43.800Z,7.50
2018-06-05T18:13:13.576Z,6.93
2018-06-05T18:15:43.327Z,7.00
2018-06-05T18:18:12.982Z,6.73
2018-06-05T18:20:42.640Z,6.53
2018-06-05T18:23:18.945Z,7.17
2018-06-05T18:25:48.630Z,6.90
2018-06-05T18:28:18.304Z,6.60
2018-06-05T18:30:47.967Z,6.10
2018-06-05T18:33:17.636Z,6.83
2018-06-05T18:35:47.335Z,7.37
2018-06-05T18:38:17.007Z,6.33
2018-06-05T18:40:46.856Z,7.13
2018-06-05T18:43:16.538Z,6.97
2018-06-05T18:45:46.192Z,6.50
2018-06-05T18:48:15.852Z,7.23
2018-06-05T18:50:45.513Z,7.20
2018-06-05T18:53:15.128Z,6.63
2018-06-05T18:55:44.747Z,7.53
2018-06-05T18:58:14.429Z,7.27
2018-06-05T19:00:44.070Z,7.50
2018-06-05T19:03:13.769Z,8.40
2018-06-05T19:05:43.464Z,7.10
2018-06-05T19:08:13.135Z,7.20
2018-06-05T19:10:42.791Z,7.10
2018-06-05T19:13:12.509Z,6.93
2018-06-05T19:15:42.153Z,7.27
2018-06-05T19:18:11.803Z,7.20
2018-06-05T19:20:41.544Z,7.43
2018-06-05T19:23:11.259Z,7.60
2018-06-05T19:25:40.956Z,7.23
2018-06-05T19:28:10.710Z,9.10
2018-06-05T19:30:40.405Z,9.40
2018-06-05T19:33:10.111Z,8.27
2018-06-05T19:35:39.884Z,7.93
2018-06-05T19:38:09.551Z,8.07
2018-06-05T19:40:39.275Z,8.80
2018-06-05T19:43:08.937Z,9.53
2018-06-05T19:45:38.619Z,8.80
2018-06-05T19:48:08.311Z,9.10
2018-06-05T19:50:37.969Z,8.83
2018-06-05T19:53:07.632Z,8.90
2018-06-05T19:55:37.374Z,9.23
2018-06-05T19:58:07.053Z,9.03
2018-06-05T20:00:36.739Z,10.47
2018-06-05T20:03:06.463Z,10.00
2018-06-05T20:05:36.392Z,9.27
2018-06-05T20:08:06.067Z,11.13
2018-06-05T20:10:35.739Z,11.20
2018-06-05T20:13:05.519Z,11.40
2018-06-05T20:15:35.533Z,11.33
2018-06-05T20:18:05.358Z,11.17
2018-06-05T20:20:35.038Z,10.77
2018-06-05T20:23:04.708Z,10.90
2018-06-05T20:25:34.438Z,12.17
2018-06-05T20:28:04.107Z,11.67
2018-06-05T20:30:33.779Z,12.43
2018-06-05T20:33:03.585Z,12.37
2018-06-05T20:35:33.269Z,11.60
2018-06-05T20:38:02.993Z,11.50
2018-06-05T20:40:32.872Z,11.60
2018-06-05T20:43:02.560Z,12.17
2018-06-05T20:45:32.376Z,13.07
2018-06-05T20:48:02.083Z,14.07
2018-06-05T20:50:31.837Z,13.37
2018-06-05T20:53:01.586Z,12.47
2018-06-05T20:55:31.328Z,13.27
2018-06-05T20:58:01.820Z,12.23
2018-06-05T21:00:31.540Z,12.47
2018-06-05T21:03:01.224Z,12.57
2018-06-05T21:05:30.897Z,12.33
2018-06-05T21:08:00.643Z,13.23
2018-06-05T21:10:30.300Z,12.80
2018-06-05T21:13:00.010Z,11.90
2018-06-05T21:15:29.694Z,13.13
2018-06-05T21:17:59.361Z,13.10
2018-06-05T21:20:29.114Z,13.57
2018-06-05T21:22:58.757Z,13.00
2018-06-05T21:25:28.420Z,13.47
2018-06-05T21:27:58.130Z,14.07
2018-06-05T21:30:27.794Z,14.33
2018-06-05T21:32:57.470Z,13.77
2018-06-05T21:35:27.547Z,14.27
2018-06-05T21:37:57.198Z,14.40
2018-06-05T21:40:26.873Z,13.47
2018-06-05T21:42:56.591Z,15.57
2018-06-05T21:45:26.236Z,13.23
2018-06-05T21:47:55.962Z,15.30
2018-06-05T21:50:25.679Z,14.97
2018-06-05T21:52:55.361Z,15.20
2018-06-05T21:55:25.124Z,14.53
2018-06-05T21:57:54.780Z,15.33
2018-06-05T22:00:24.458Z,13.77
2018-06-05T22:02:54.167Z,14.70
2018-06-05T22:05:23.853Z,14.47
2018-06-05T22:07:53.510Z,13.70
2018-06-05T22:10:23.206Z,14.60
2018-06-05T22:12:52.877Z,15.23
2018-06-05T22:15:22.544Z,14.50
2018-06-05T22:17:52.248Z,13.77
2018-06-05T22:20:21.918Z,14.37
2018-06-05T22:22:51.605Z,13.50
2018-06-05T22:25:21.287Z,13.33
2018-06-05T22:27:50.957Z,14.83
2018-06-05T22:30:20.617Z,14.73
2018-06-05T22:32:50.585Z,15.20
2018-06-05T22:35:20.279Z,14.07
2018-06-05T22:37:49.931Z,15.07
2018-06-05T22:40:19.661Z,15.67
2018-06-05T22:42:49.735Z,16.53
2018-06-05T22:45:19.436Z,14.27
2018-06-05T22:47:49.134Z,15.27
2018-06-05T22:50:18.815Z,16.07
2018-06-05T22:52:48.532Z,17.23
2018-06-05T22:55:18.223Z,16.00
2018-06-05T22:57:47.881Z,16.17
2018-06-05T23:00:23.891Z,16.67
2018-06-05T23:02:53.548Z,15.43
2018-06-05T23:05:23.252Z,17.57
2018-06-05T23:07:52.926Z,17.17
2018-06-05T23:10:22.594Z,16.57
2018-06-05T23:12:52.293Z,18.47
2018-06-05T23:15:21.960Z,17.60
2018-06-05T23:17:51.600Z,17.80
2018-06-05T23:20:21.353Z,18.67
2018-06-05T23:22:51.010Z,16.27
2018-06-05T23:25:20.685Z,16.57
2018-06-05T23:27:50.392Z,16.13
2018-06-05T23:30:20.115Z,17.33
2018-06-05T23:32:49.819Z,16.43
2018-06-05T23:35:19.772Z,16.67
2018-06-05T23:37:49.436Z,15.63
2018-06-05T23:40:19.144Z,15.97
2018-06-05T23:42:48.837Z,14.77
2018-06-05T23:45:18.488Z,15.23
2018-06-05T23:47:48.172Z,16.03
2018-06-05T23:50:17.841Z,14.67
2018-06-05T23:52:47.492Z,14.57
2018-06-05T23:55:23.676Z,14.70
2018-06-05T23:57:53.327Z,14.63
